Time;durP1;ratioP1;P1;durP2;ratioP2;P2;SDS_P1;SDS_P2;PMS_P1;PMS_P2;Temp;Humidity;BMP_temperature;BMP_pressure;BME280_temperature;BME280_humidity;BME280_pressure;Samples;Min_cycle;Max_cycle;Signal;HPM_P1;HPM_P2
2022/07/06 00:01:55;;;;;;;7.47;1.83;;;14.70;99.90;;;;;;5056912;28;20025;-70
2022/07/06 00:04:23;;;;;;;6.80;1.92;;;14.80;99.90;;;;;;5058008;28;20028;-70
2022/07/06 00:06:50;;;;;;;5.10;1.80;;;14.90;99.90;;;;;;5062414;28;20079;-70
2022/07/06 00:09:17;;;;;;;5.15;1.50;;;14.90;99.90;;;;;;5056762;28;20096;-67
2022/07/06 00:11:45;;;;;;;7.07;1.70;;;14.90;99.90;;;;;;5060308;28;20032;-70
2022/07/06 00:14:12;;;;;;;7.22;1.70;;;14.90;99.90;;;;;;5059898;28;20024;-67
2022/07/06 00:16:39;;;;;;;6.60;1.75;;;14.90;99.90;;;;;;5061108;28;20052;-68
2022/07/06 00:19:06;;;;;;;7.57;2.05;;;14.90;99.90;;;;;;5040045;28;20028;-70
2022/07/06 00:21:33;;;;;;;9.18;2.13;;;14.90;99.90;;;;;;5056792;28;20549;-68
2022/07/06 00:24:01;;;;;;;6.50;1.88;;;14.80;99.90;;;;;;5058379;28;20028;-67
2022/07/06 00:26:28;;;;;;;6.00;2.05;;;14.80;99.90;;;;;;5058117;28;20016;-70
2022/07/06 00:28:55;;;;;;;6.63;2.08;;;14.80;99.90;;;;;;5056242;28;20028;-66
2022/07/06 00:31:22;;;;;;;11.82;2.35;;;14.80;99.90;;;;;;5055881;28;20575;-69
2022/07/06 00:33:49;;;;;;;8.77;2.72;;;14.90;99.90;;;;;;5058847;28;20036;-70
2022/07/06 00:36:17;;;;;;;10.18;3.72;;;14.90;99.90;;;;;;5059501;28;20480;-69
2022/07/06 00:38:44;;;;;;;10.60;3.40;;;15.00;99.90;;;;;;5060826;28;20154;-66
2022/07/06 00:41:12;;;;;;;6.65;2.45;;;15.20;99.90;;;;;;5057615;28;20067;-68
2022/07/06 00:43:57;;;;;;;8.65;2.90;;;15.40;99.90;;;;;;5058636;28;20020;-67
2022/07/06 00:46:33;;;;;;;9.15;3.55;;;15.40;99.90;;;;;;5059697;28;20040;-68
2022/07/06 00:49:01;;;;;;;7.07;2.40;;;15.60;99.90;;;;;;5060236;28;20020;-67
2022/07/06 00:51:35;;;;;;;8.05;2.55;;;15.70;99.90;;;;;;5039465;28;20032;-70
2022/07/06 00:54:05;;;;;;;8.38;2.58;;;15.80;99.90;;;;;;5060818;28;20021;-68
2022/07/06 00:56:34;;;;;;;5.65;2.47;;;15.90;99.90;;;;;;5056806;28;20123;-67
2022/07/06 00:59:02;;;;;;;9.65;2.80;;;16.00;99.90;;;;;;5059094;28;20024;-69
2022/07/06 01:01:29;;;;;;;8.00;2.63;;;16.10;99.90;;;;;;5058357;28;20025;-68
2022/07/06 01:03:56;;;;;;;6.63;2.45;;;16.20;99.90;;;;;;5059044;28;20021;-69
2022/07/06 01:06:23;;;;;;;12.70;2.17;;;16.10;99.90;;;;;;5062723;28;20511;-69
2022/07/06 01:08:50;;;;;;;7.15;2.13;;;15.90;99.90;;;;;;5063730;28;20090;-68
2022/07/06 01:11:19;;;;;;;10.13;2.78;;;15.80;99.90;;;;;;5062277;28;20024;-70
2022/07/06 01:13:48;;;;;;;13.73;3.28;;;15.80;99.90;;;;;;5064868;28;21434;-67
2022/07/06 01:16:15;;;;;;;6.40;2.90;;;15.70;99.90;;;;;;5060850;28;20024;-68
2022/07/06 01:18:43;;;;;;;6.82;2.05;;;15.70;99.90;;;;;;5062533;28;20374;-68
2022/07/06 01:21:13;;;;;;;6.53;2.50;;;15.70;99.90;;;;;;5060086;28;20024;-68
2022/07/06 01:23:45;;;;;;;7.28;2.05;;;15.80;99.90;;;;;;5065077;28;20016;-70
2022/07/06 01:26:19;;;;;;;10.75;2.25;;;15.90;99.90;;;;;;5061139;28;20020;-68
2022/07/06 01:28:50;;;;;;;6.70;1.88;;;15.90;99.90;;;;;;5062882;28;20399;-68
2022/07/06 01:31:25;;;;;;;10.65;2.42;;;16.00;99.90;;;;;;5058691;28;20044;-67
2022/07/06 01:33:55;;;;;;;11.55;2.38;;;16.00;99.90;;;;;;5061466;28;20037;-67
2022/07/06 01:36:23;;;;;;;10.15;2.30;;;16.00;99.90;;;;;;5060998;28;20032;-70
2022/07/06 01:38:59;;;;;;;13.95;4.32;;;15.90;99.90;;;;;;5061761;28;20487;-66
2022/07/06 01:41:26;;;;;;;8.35;2.15;;;15.90;99.90;;;;;;5061672;28;20455;-67
2022/07/06 01:43:54;;;;;;;7.57;2.15;;;15.80;99.90;;;;;;5062434;28;20020;-69
2022/07/06 01:46:21;;;;;;;9.63;1.60;;;15.70;99.90;;;;;;5062291;28;20378;-69
2022/07/06 01:48:48;;;;;;;9.95;2.95;;;15.70;99.90;;;;;;5060916;28;20035;-66
2022/07/06 01:51:15;;;;;;;8.15;2.67;;;15.80;99.90;;;;;;5060451;28;20041;-66
2022/07/06 01:53:43;;;;;;;9.55;3.47;;;16.00;99.90;;;;;;5062456;28;20343;-71
2022/07/06 01:56:11;;;;;;;10.80;3.38;;;16.10;99.90;;;;;;5058189;28;20090;-71
2022/07/06 01:58:39;;;;;;;10.52;2.72;;;16.30;99.90;;;;;;5062606;28;20047;-67
2022/07/06 02:01:14;;;;;;;10.70;2.83;;;16.40;99.90;;;;;;5060258;28;20020;-71
2022/07/06 02:03:42;;;;;;;11.27;2.55;;;16.50;99.90;;;;;;5061937;28;20165;-66
2022/07/06 02:06:09;;;;;;;8.50;2.92;;;16.70;99.90;;;;;;5061096;28;20868;-65
2022/07/06 02:08:37;;;;;;;9.32;2.97;;;16.70;99.90;;;;;;5064757;28;20444;-65
2022/07/06 02:11:08;;;;;;;9.48;2.65;;;16.80;99.90;;;;;;5061565;28;20505;-63
2022/07/06 02:13:36;;;;;;;10.38;2.28;;;16.80;99.90;;;;;;5061992;28;20291;-63
2022/07/06 02:16:04;;;;;;;9.30;2.38;;;16.80;99.90;;;;;;5056969;28;20029;-66
2022/07/06 02:18:31;;;;;;;9.48;2.22;;;16.60;99.90;;;;;;4360450;28;10000702;-68
2022/07/06 02:20:58;;;;;;;11.13;1.92;;;16.50;99.90;;;;;;5057163;28;20028;-63
2022/07/06 02:23:26;;;;;;;8.13;1.85;;;16.40;99.90;;;;;;5056277;28;20033;-68
2022/07/06 02:25:53;;;;;;;7.95;2.05;;;16.50;99.90;;;;;;5057478;28;20059;-69
2022/07/06 02:28:20;;;;;;;9.13;1.63;;;16.40;99.90;;;;;;5058468;28;20028;-70
2022/07/06 02:30:47;;;;;;;10.13;1.95;;;16.30;99.90;;;;;;5054658;28;20087;-69
2022/07/06 02:33:14;;;;;;;9.55;2.03;;;16.50;99.90;;;;;;5055990;28;20087;-65
2022/07/06 02:35:44;;;;;;;7.97;1.90;;;16.60;99.90;;;;;;5058100;28;20028;-70
2022/07/06 02:38:12;;;;;;;9.57;2.53;;;16.60;99.90;;;;;;5059881;28;20963;-66
2022/07/06 02:40:39;;;;;;;5.05;1.45;;;16.70;99.90;;;;;;5056590;28;20159;-67
2022/07/06 02:43:07;;;;;;;6.72;1.92;;;16.80;99.90;;;;;;5054982;28;20082;-70
2022/07/06 02:45:34;;;;;;;10.80;2.30;;;16.90;99.90;;;;;;5056197;28;20056;-73
2022/07/06 02:48:01;;;;;;;10.52;2.45;;;17.10;99.90;;;;;;5056599;28;20103;-70
2022/07/06 02:50:28;;;;;;;8.90;2.05;;;17.20;99.90;;;;;;5055465;28;20119;-70
2022/07/06 02:52:55;;;;;;;6.82;1.67;;;17.30;99.90;;;;;;5056801;28;20028;-70
2022/07/06 02:55:23;;;;;;;3.60;1.60;;;17.20;99.90;;;;;;5056660;28;20028;-67
2022/07/06 02:57:50;;;;;;;7.32;1.75;;;17.20;99.90;;;;;;5051064;28;20689;-67
2022/07/06 03:00:17;;;;;;;7.68;1.85;;;17.10;99.90;;;;;;5055469;28;20024;-66
2022/07/06 03:02:44;;;;;;;8.90;1.60;;;17.00;99.90;;;;;;5057571;28;20032;-65
2022/07/06 03:05:11;;;;;;;5.53;1.35;;;16.90;99.90;;;;;;5035190;28;20143;-73
2022/07/06 03:07:39;;;;;;;7.85;2.17;;;16.90;99.90;;;;;;5056803;28;20111;-68
2022/07/06 03:10:06;;;;;;;6.45;1.33;;;17.00;99.90;;;;;;5057391;28;20101;-67
2022/07/06 03:12:33;;;;;;;9.40;1.52;;;16.90;99.90;;;;;;5057889;28;20024;-68
2022/07/06 03:15:01;;;;;;;8.02;1.83;;;16.80;99.90;;;;;;5055329;28;20450;-67
2022/07/06 03:17:29;;;;;;;7.45;1.85;;;16.80;99.90;;;;;;5054534;28;20024;-67
2022/07/06 03:19:56;;;;;;;8.93;2.63;;;16.70;99.90;;;;;;5056521;28;20023;-69
2022/07/06 03:22:23;;;;;;;8.35;2.80;;;16.50;99.90;;;;;;5056825;28;20490;-67
2022/07/06 03:24:53;;;;;;;8.43;2.33;;;16.50;99.90;;;;;;5055928;28;20461;-67
2022/07/06 03:27:20;;;;;;;9.15;2.38;;;16.30;99.90;;;;;;5054745;28;20025;-65
2022/07/06 03:29:47;;;;;;;10.00;2.38;;;16.20;99.90;;;;;;5053961;28;20586;-68
2022/07/06 03:32:14;;;;;;;12.27;2.55;;;15.90;99.90;;;;;;5052731;28;20033;-67
2022/07/06 03:34:41;;;;;;;9.55;3.53;;;15.80;99.90;;;;;;5055440;28;20063;-69
2022/07/06 03:37:08;;;;;;;11.50;3.85;;;15.60;99.90;;;;;;5056647;28;20332;-66
2022/07/06 03:39:35;;;;;;;8.50;4.00;;;15.50;99.90;;;;;;5055916;28;20024;-66
2022/07/06 03:42:03;;;;;;;7.07;2.55;;;15.60;99.90;;;;;;5051969;28;20091;-69
2022/07/06 03:44:30;;;;;;;7.50;2.13;;;15.70;99.90;;;;;;5038807;28;20418;-66
2022/07/06 03:46:57;;;;;;;8.63;2.15;;;15.70;99.90;;;;;;5053437;28;20016;-66
2022/07/06 03:49:26;;;;;;;10.52;2.05;;;15.80;99.90;;;;;;5058161;28;20529;-68
2022/07/06 03:51:54;;;;;;;8.52;2.20;;;16.00;99.90;;;;;;5054095;28;20056;-68
2022/07/06 03:54:21;;;;;;;9.25;2.00;;;16.00;99.90;;;;;;5054792;28;20112;-73
2022/07/06 03:56:48;;;;;;;8.98;3.20;;;16.20;99.90;;;;;;5055386;28;20155;-73
2022/07/06 03:59:16;;;;;;;8.90;1.80;;;16.30;99.90;;;;;;5053394;28;20483;-73
2022/07/06 04:01:43;;;;;;;7.45;2.05;;;16.20;99.90;;;;;;5055380;28;20024;-73
2022/07/06 04:04:10;;;;;;;10.20;2.67;;;16.20;99.90;;;;;;5056007;28;20451;-73
2022/07/06 04:06:38;;;;;;;7.60;1.60;;;16.20;99.90;;;;;;5055174;28;20020;-67
2022/07/06 04:09:05;;;;;;;13.43;2.67;;;16.20;99.90;;;;;;5053560;28;20056;-65
2022/07/06 04:11:32;;;;;;;8.57;1.83;;;16.10;99.90;;;;;;5056416;28;20032;-66
2022/07/06 04:13:59;;;;;;;10.18;2.30;;;16.10;99.90;;;;;;5056453;28;20024;-69
2022/07/06 04:16:26;;;;;;;7.10;1.80;;;16.00;99.90;;;;;;5055180;28;20020;-67
2022/07/06 04:18:53;;;;;;;11.25;2.83;;;16.00;99.90;;;;;;5054450;28;20103;-66
2022/07/06 04:21:21;;;;;;;7.47;2.20;;;16.10;99.90;;;;;;5055094;28;20017;-66
2022/07/06 04:23:48;;;;;;;11.80;3.65;;;16.10;99.90;;;;;;5052868;28;20390;-70
2022/07/06 04:26:15;;;;;;;5.88;2.15;;;16.10;99.90;;;;;;5054421;28;20020;-67
2022/07/06 04:28:42;;;;;;;9.13;2.13;;;16.20;99.90;;;;;;5055132;28;20036;-69
2022/07/06 04:31:09;;;;;;;5.78;1.50;;;16.20;99.90;;;;;;5053613;28;20083;-69
2022/07/06 04:33:36;;;;;;;7.13;1.75;;;16.20;99.90;;;;;;5056832;28;20559;-66
2022/07/06 04:36:04;;;;;;;9.93;2.00;;;16.20;99.90;;;;;;5052637;28;20021;-66
2022/07/06 04:38:31;;;;;;;11.02;2.25;;;16.30;99.90;;;;;;5052107;28;20131;-69
2022/07/06 04:40:58;;;;;;;9.27;1.80;;;16.30;99.90;;;;;;5057206;28;20020;-68
2022/07/06 04:43:25;;;;;;;6.70;2.00;;;16.30;99.90;;;;;;5037700;28;20029;-70
2022/07/06 04:45:52;;;;;;;7.15;2.28;;;16.30;99.90;;;;;;5041206;28;20141;-66
2022/07/06 04:48:19;;;;;;;6.60;1.45;;;16.20;99.90;;;;;;5060508;28;20029;-65
2022/07/06 04:50:46;;;;;;;11.75;2.70;;;16.10;99.90;;;;;;5058141;28;20032;-65
2022/07/06 04:53:14;;;;;;;10.27;1.80;;;16.20;99.90;;;;;;5058382;28;20438;-67
2022/07/06 04:55:41;;;;;;;6.38;2.20;;;16.10;99.90;;;;;;5058160;28;20032;-66
2022/07/06 04:58:08;;;;;;;7.47;1.75;;;16.10;99.90;;;;;;5055379;28;20885;-64
2022/07/06 05:00:35;;;;;;;9.13;2.42;;;16.00;99.90;;;;;;5059546;28;20045;-65
2022/07/06 05:03:02;;;;;;;6.60;1.52;;;15.90;99.90;;;;;;5058623;28;20113;-63
2022/07/06 05:05:29;;;;;;;6.32;1.70;;;15.90;99.90;;;;;;5057656;28;20439;-67
2022/07/06 05:07:56;;;;;;;5.65;1.50;;;15.80;99.90;;;;;;5058384;28;20035;-68
2022/07/06 05:10:23;;;;;;;9.63;2.65;;;15.80;99.90;;;;;;5058632;28;20043;-67
2022/07/06 05:12:51;;;;;;;9.80;1.50;;;15.80;99.90;;;;;;5058578;28;20053;-67
2022/07/06 05:15:18;;;;;;;10.95;1.85;;;15.80;99.90;;;;;;5059230;28;20016;-68
2022/07/06 05:17:45;;;;;;;6.55;1.83;;;15.80;99.90;;;;;;5057931;28;20379;-66
2022/07/06 05:20:12;;;;;;;6.50;1.40;;;15.90;99.90;;;;;;5058094;28;20118;-68
2022/07/06 05:22:39;;;;;;;7.30;1.52;;;15.80;99.90;;;;;;5060076;28;20315;-66
2022/07/06 05:25:06;;;;;;;6.03;1.92;;;15.80;99.90;;;;;;5056751;28;20025;-66
2022/07/06 05:27:34;;;;;;;6.22;2.15;;;15.80;99.90;;;;;;5056320;28;20483;-66
2022/07/06 05:30:01;;;;;;;7.93;2.50;;;15.80;99.90;;;;;;5087865;22;20539;-66
2022/07/06 05:32:28;;;;;;;6.28;1.38;;;15.80;99.90;;;;;;5058979;28;20093;-66
2022/07/06 05:34:55;;;;;;;5.97;2.20;;;15.90;99.90;;;;;;5060164;28;20147;-67
2022/07/06 05:37:22;;;;;;;7.95;1.90;;;15.90;99.90;;;;;;5057635;28;20560;-65
2022/07/06 05:39:50;;;;;;;6.55;1.95;;;15.90;99.90;;;;;;5059929;28;20052;-65
2022/07/06 05:42:18;;;;;;;6.13;1.88;;;15.80;99.90;;;;;;5056799;28;20288;-66
2022/07/06 05:44:45;;;;;;;5.53;1.67;;;15.80;99.90;;;;;;5049914;28;20039;-67
2022/07/06 05:50:12;;;;;;;8.43;2.20;;;15.80;99.90;;;;;;5057307;28;20492;-66
2022/07/06 05:52:44;;;;;;;5.38;1.83;;;15.70;99.90;;;;;;5055638;28;20429;-65
2022/07/06 05:55:13;;;;;;;5.90;1.75;;;15.70;99.90;;;;;;5057731;28;20182;-67
2022/07/06 05:57:40;;;;;;;8.38;1.92;;;15.60;99.90;;;;;;5058439;28;20054;-67
2022/07/06 06:00:08;;;;;;;2.83;1.35;;;15.60;99.90;;;;;;5052913;28;20476;-66
2022/07/06 06:02:40;;;;;;;6.43;1.75;;;15.60;99.90;;;;;;5056278;28;20082;-68
2022/07/06 06:05:09;;;;;;;5.60;1.73;;;15.60;99.90;;;;;;5054763;28;20037;-68
2022/07/06 06:07:37;;;;;;;4.43;1.27;;;15.60;99.90;;;;;;5054765;28;20091;-66
2022/07/06 06:10:10;;;;;;;5.70;1.70;;;15.60;99.90;;;;;;5054792;28;20198;-67
2022/07/06 06:12:38;;;;;;;8.13;2.28;;;15.50;99.90;;;;;;5056849;28;20399;-66
2022/07/06 06:15:06;;;;;;;5.65;3.13;;;15.40;99.90;;;;;;5055274;28;20514;-65
2022/07/06 06:17:34;;;;;;;8.75;2.53;;;15.30;99.90;;;;;;5054267;28;20429;-65
2022/07/06 06:20:01;;;;;;;7.22;2.55;;;15.30;99.90;;;;;;5056248;28;20025;-67
2022/07/06 06:22:28;;;;;;;6.93;2.40;;;15.30;99.90;;;;;;5056038;28;20073;-66
2022/07/06 06:24:55;;;;;;;6.07;2.33;;;15.30;99.90;;;;;;5054885;28;20527;-66
2022/07/06 06:27:22;;;;;;;5.88;2.20;;;15.30;99.90;;;;;;5056099;28;20029;-67
2022/07/06 06:29:49;;;;;;;6.95;2.55;;;15.30;99.90;;;;;;5053549;28;20142;-67
2022/07/06 06:32:16;;;;;;;7.72;4.78;;;15.30;99.90;;;;;;5057329;28;20554;-67
2022/07/06 06:34:44;;;;;;;4.75;2.13;;;15.20;99.90;;;;;;5056500;28;20120;-66
2022/07/06 06:37:11;;;;;;;7.22;2.70;;;15.20;99.90;;;;;;5056032;28;20641;-67
2022/07/06 06:39:38;;;;;;;5.70;2.28;;;15.20;99.90;;;;;;5055569;28;20561;-67
2022/07/06 06:42:05;;;;;;;7.53;2.15;;;15.10;99.90;;;;;;5056106;28;20345;-67
2022/07/06 06:44:32;;;;;;;4.20;1.40;;;15.10;99.90;;;;;;5057670;28;20035;-65
2022/07/06 06:47:00;;;;;;;7.40;2.33;;;15.00;99.90;;;;;;5055677;28;20054;-67
2022/07/06 06:49:27;;;;;;;6.22;1.77;;;15.00;99.90;;;;;;5055782;28;20027;-66
2022/07/06 06:51:54;;;;;;;6.65;1.88;;;15.00;99.90;;;;;;5055490;28;20075;-66
2022/07/06 06:54:21;;;;;;;3.15;1.40;;;14.90;99.90;;;;;;5054787;28;20030;-66
2022/07/06 06:56:48;;;;;;;6.78;1.70;;;14.90;99.90;;;;;;5056906;28;20033;-66
2022/07/06 06:59:15;;;;;;;4.43;1.65;;;14.90;99.90;;;;;;5056675;28;20572;-67
2022/07/06 07:01:42;;;;;;;7.75;1.70;;;14.90;99.90;;;;;;5053638;28;20028;-69
2022/07/06 07:04:09;;;;;;;8.30;2.15;;;14.80;99.90;;;;;;5054115;28;20025;-66
2022/07/06 07:06:36;;;;;;;5.13;1.60;;;14.80;99.90;;;;;;5055078;28;20073;-73
2022/07/06 07:09:04;;;;;;;8.73;2.25;;;14.80;99.90;;;;;;5055564;28;20469;-66
2022/07/06 07:11:32;;;;;;;7.82;2.28;;;14.80;99.90;;;;;;5054482;28;20032;-70
2022/07/06 07:14:00;;;;;;;4.78;1.60;;;14.80;99.90;;;;;;5055986;28;20028;-68
2022/07/06 07:16:27;;;;;;;4.90;2.05;;;14.80;99.90;;;;;;5054682;28;20416;-67
2022/07/06 07:18:55;;;;;;;6.00;1.83;;;14.70;99.90;;;;;;5054313;28;20046;-68
2022/07/06 07:21:22;;;;;;;8.52;2.10;;;14.70;99.90;;;;;;5056895;28;20150;-70
2022/07/06 07:23:50;;;;;;;4.55;1.63;;;14.70;99.90;;;;;;5053894;28;20494;-71
2022/07/06 07:26:18;;;;;;;4.10;1.58;;;14.70;99.90;;;;;;5054209;28;20376;-67
2022/07/06 07:28:45;;;;;;;4.80;1.50;;;14.70;99.90;;;;;;5054364;28;20027;-70
2022/07/06 07:31:12;;;;;;;4.20;1.27;;;14.60;99.90;;;;;;5052850;28;20087;-68
2022/07/06 07:33:39;;;;;;;4.60;1.60;;;14.60;99.90;;;;;;5052071;28;20024;-66
2022/07/06 07:36:07;;;;;;;5.38;1.48;;;14.60;99.90;;;;;;5055151;28;20142;-68
2022/07/06 07:38:34;;;;;;;4.57;1.48;;;14.70;99.90;;;;;;5056643;28;20098;-70
2022/07/06 07:41:02;;;;;;;4.10;1.40;;;14.60;99.90;;;;;;5054552;28;20425;-69
2022/07/06 07:43:29;;;;;;;3.70;1.20;;;14.60;99.90;;;;;;5054552;28;20024;-71
2022/07/06 07:45:56;;;;;;;6.63;1.50;;;14.60;99.90;;;;;;5054753;28;20029;-70
2022/07/06 07:48:23;;;;;;;7.10;1.30;;;14.60;99.90;;;;;;5053328;28;20384;-70
2022/07/06 07:50:50;;;;;;;6.20;1.50;;;14.60;99.90;;;;;;5054613;28;20062;-70
2022/07/06 07:53:17;;;;;;;6.57;2.17;;;14.50;99.90;;;;;;5036893;28;20118;-74
2022/07/06 07:55:44;;;;;;;7.10;2.33;;;14.50;99.90;;;;;;5057233;28;20494;-72
2022/07/06 07:58:12;;;;;;;7.07;2.13;;;14.60;99.90;;;;;;5049854;28;20112;-72
2022/07/06 08:00:39;;;;;;;4.47;1.65;;;14.60;99.90;;;;;;5053645;28;20078;-70
2022/07/06 08:03:06;;;;;;;7.32;1.50;;;14.50;99.90;;;;;;5056508;28;20024;-73
2022/07/06 08:05:33;;;;;;;5.05;1.48;;;14.50;99.90;;;;;;5053791;28;20468;-71
2022/07/06 08:08:00;;;;;;;3.85;1.40;;;14.50;99.90;;;;;;5055878;28;20044;-69
2022/07/06 08:10:27;;;;;;;3.55;1.58;;;14.50;99.90;;;;;;5049954;28;20388;-69
2022/07/06 08:12:55;;;;;;;4.57;1.60;;;14.50;99.90;;;;;;5055150;28;20423;-70
2022/07/06 08:15:22;;;;;;;3.67;1.27;;;14.50;99.90;;;;;;5060158;28;20027;-70
2022/07/06 08:17:49;;;;;;;4.20;1.75;;;14.50;99.90;;;;;;5057439;28;20028;-71
2022/07/06 08:20:16;;;;;;;5.10;1.80;;;14.50;99.90;;;;;;5056659;28;20657;-71
2022/07/06 08:22:44;;;;;;;5.15;1.35;;;14.50;99.90;;;;;;5055418;28;20182;-71
2022/07/06 08:25:11;;;;;;;3.13;1.40;;;14.50;99.90;;;;;;5057883;28;20116;-69
2022/07/06 08:27:38;;;;;;;7.32;1.80;;;14.50;99.90;;;;;;5057194;28;20923;-71
2022/07/06 08:30:06;;;;;;;5.32;1.50;;;14.50;99.90;;;;;;5056080;28;20576;-74
2022/07/06 08:32:36;;;;;;;7.95;1.52;;;14.50;99.90;;;;;;5041115;28;20032;-74
2022/07/06 08:35:04;;;;;;;3.03;1.40;;;14.50;99.90;;;;;;5060203;28;20066;-68
2022/07/06 08:37:31;;;;;;;5.90;1.42;;;14.40;99.90;;;;;;5054402;28;20017;-68
2022/07/06 08:39:59;;;;;;;5.93;1.67;;;14.40;99.90;;;;;;5058579;28;20082;-69
2022/07/06 08:42:31;;;;;;;5.78;1.50;;;14.40;99.90;;;;;;5055902;28;20434;-75
2022/07/06 08:45:02;;;;;;;;;;;14.40;99.90;;;;;;5059629;28;20039;-70
2022/07/06 08:47:31;;;;;;;6.68;1.10;;;14.30;99.90;;;;;;5057791;28;19917;-73
2022/07/06 08:49:58;;;;;;;3.60;1.20;;;14.30;99.90;;;;;;5057313;28;20041;-69
2022/07/06 08:52:26;;;;;;;4.43;1.30;;;14.30;99.90;;;;;;5056423;28;20129;-69
2022/07/06 08:54:54;;;;;;;4.32;1.42;;;14.30;99.90;;;;;;5054388;28;20027;-68
2022/07/06 08:57:21;;;;;;;3.30;1.30;;;14.30;99.90;;;;;;5053741;28;20059;-66
2022/07/06 08:59:48;;;;;;;6.13;1.13;;;14.30;99.90;;;;;;5055300;28;20128;-67
2022/07/06 09:02:16;;;;;;;4.30;1.45;;;14.30;99.90;;;;;;5056255;28;20514;-65
2022/07/06 09:04:44;;;;;;;8.55;1.13;;;14.30;99.90;;;;;;5054867;28;20020;-66
2022/07/06 09:07:11;;;;;;;3.50;1.00;;;14.30;99.90;;;;;;5055471;28;20861;-66
2022/07/06 09:09:39;;;;;;;5.28;1.23;;;14.30;99.90;;;;;;5035598;28;20024;-67
2022/07/06 09:12:13;;;;;;;4.95;1.33;;;14.30;99.90;;;;;;5056133;28;20113;-68
2022/07/06 09:14:40;;;;;;;3.10;1.20;;;14.30;99.90;;;;;;5053113;28;20028;-69
2022/07/06 09:17:08;;;;;;;5.80;2.03;;;14.30;99.90;;;;;;5056155;28;20025;-67
2022/07/06 09:19:36;;;;;;;5.38;1.42;;;14.20;99.90;;;;;;5057050;28;20093;-65
2022/07/06 09:22:04;;;;;;;4.85;1.40;;;14.20;99.90;;;;;;5055450;28;20020;-66
2022/07/06 09:24:32;;;;;;;4.22;1.45;;;14.10;99.90;;;;;;5057673;28;20021;-65
2022/07/06 09:27:00;;;;;;;7.15;1.52;;;14.10;99.90;;;;;;5053958;28;20518;-68
2022/07/06 09:29:29;;;;;;;6.15;1.55;;;14.10;99.90;;;;;;5052126;28;20040;-66
2022/07/06 09:32:05;;;;;;;8.02;1.80;;;14.00;99.90;;;;;;5054727;28;20036;-68
2022/07/06 09:34:46;;;;;;;6.10;1.65;;;14.00;99.90;;;;;;5055656;28;20125;-71
2022/07/06 09:37:14;;;;;;;4.82;1.73;;;14.00;99.90;;;;;;5055498;28;20025;-67
2022/07/06 09:39:42;;;;;;;5.03;1.70;;;14.10;99.90;;;;;;5056812;28;20513;-70
2022/07/06 09:42:10;;;;;;;6.03;1.40;;;14.00;99.90;;;;;;5054519;28;20107;-67
2022/07/06 09:44:39;;;;;;;2.97;1.42;;;14.00;99.90;;;;;;5056829;28;20143;-70
2022/07/06 09:47:11;;;;;;;10.38;2.30;;;14.00;99.90;;;;;;5058546;28;20028;-66
2022/07/06 09:49:39;;;;;;;6.97;2.10;;;14.00;99.90;;;;;;5073941;28;20020;-65
2022/07/06 09:52:09;;;;;;;3.45;1.48;;;13.90;99.90;;;;;;5073184;28;20659;-67
2022/07/06 09:54:38;;;;;;;3.78;1.48;;;13.90;99.90;;;;;;5072455;28;20509;-67
2022/07/06 09:57:06;;;;;;;1.95;0.98;;;13.90;99.90;;;;;;5072402;28;20498;-67
2022/07/06 09:59:37;;;;;;;3.75;1.30;;;13.80;99.90;;;;;;5074790;28;20032;-70
2022/07/06 10:02:06;;;;;;;4.43;1.42;;;13.90;99.90;;;;;;5073547;28;20034;-67
2022/07/06 10:04:34;;;;;;;4.38;1.23;;;13.90;99.90;;;;;;5073233;28;20048;-69
2022/07/06 10:07:02;;;;;;;3.72;1.25;;;13.90;99.90;;;;;;5074580;28;20031;-68
2022/07/06 10:09:30;;;;;;;5.75;1.63;;;13.90;99.90;;;;;;5061106;28;20020;-65
2022/07/06 10:11:58;;;;;;;4.40;1.88;;;13.90;99.90;;;;;;5070303;28;20103;-69
2022/07/06 10:14:30;;;;;;;8.38;1.67;;;13.90;99.90;;;;;;5071921;28;20020;-66
2022/07/06 10:17:01;;;;;;;7.07;1.67;;;13.90;99.90;;;;;;5066248;28;20029;-69
2022/07/06 10:19:30;;;;;;;4.30;1.42;;;13.90;99.90;;;;;;5074436;28;20048;-65
2022/07/06 10:22:01;;;;;;;5.88;1.63;;;13.90;99.90;;;;;;5075257;28;20116;-67
2022/07/06 10:24:29;;;;;;;9.60;1.52;;;13.90;99.90;;;;;;5071527;28;20052;-68
2022/07/06 10:26:57;;;;;;;5.15;1.38;;;13.90;99.90;;;;;;5070863;28;20087;-67
2022/07/06 10:29:25;;;;;;;3.22;1.20;;;13.90;99.90;;;;;;5072040;28;20470;-69
2022/07/06 10:31:54;;;;;;;5.90;1.35;;;13.90;99.90;;;;;;5072889;28;20089;-66
2022/07/06 10:34:21;;;;;;;6.90;1.52;;;13.80;99.90;;;;;;5068675;28;20452;-65
2022/07/06 10:36:54;;;;;;;6.45;1.73;;;13.80;99.90;;;;;;5073485;28;20024;-67
2022/07/06 10:42:45;;;;;;;3.75;1.30;;;13.90;99.90;;;;;;5072833;28;20070;-65
2022/07/06 10:45:15;;;;;;;7.13;2.13;;;13.90;99.90;;;;;;5072237;28;20066;-65
2022/07/06 10:47:43;;;;;;;4.40;1.20;;;13.80;99.90;;;;;;5074166;28;20020;-66
2022/07/06 10:50:11;;;;;;;6.20;1.45;;;13.90;99.90;;;;;;5075216;28;20087;-66
2022/07/06 10:52:58;;;;;;;4.85;1.65;;;13.80;99.90;;;;;;5073430;28;20055;-68
2022/07/06 10:55:38;;;;;;;2.75;1.25;;;13.80;99.90;;;;;;5069693;28;20036;-64
2022/07/06 10:58:06;;;;;;;5.00;1.70;;;13.80;99.90;;;;;;5072150;28;20549;-67
2022/07/06 11:00:54;;;;;;;5.53;1.88;;;13.80;99.90;;;;;;5070885;28;20491;-66
2022/07/06 11:03:43;;;;;;;2.42;1.00;;;13.90;99.90;;;;;;5067090;28;20205;-67
2022/07/06 11:06:12;;;;;;;2.10;1.20;;;13.80;99.90;;;;;;5071769;28;20067;-67
2022/07/06 11:08:49;;;;;;;2.55;1.15;;;13.80;99.90;;;;;;5068182;28;20024;-67
2022/07/06 11:11:19;;;;;;;2.58;1.25;;;13.80;99.90;;;;;;5076523;28;20112;-66
2022/07/06 11:14:16;;;;;;;4.38;1.33;;;13.80;99.90;;;;;;5074333;28;20028;-66
2022/07/06 11:16:49;;;;;;;2.97;1.40;;;13.90;99.90;;;;;;4975837;28;20609;-67
2022/07/06 11:19:17;;;;;;;7.00;2.03;;;13.90;99.90;;;;;;4976737;28;20626;-67
2022/07/06 11:21:48;;;;;;;2.92;1.63;;;13.90;99.90;;;;;;4977607;28;20077;-68
2022/07/06 11:24:18;;;;;;;6.85;1.55;;;13.90;99.90;;;;;;4975603;28;20586;-67
2022/07/06 11:26:48;;;;;;;4.57;1.15;;;13.90;99.90;;;;;;4977329;28;20042;-64
2022/07/06 11:29:17;;;;;;;5.45;1.35;;;13.90;99.90;;;;;;4975282;28;20125;-65
2022/07/06 11:31:46;;;;;;;6.07;1.67;;;13.80;99.90;;;;;;4975165;28;20038;-64
2022/07/06 11:34:18;;;;;;;4.25;1.20;;;13.90;99.90;;;;;;4976658;28;20090;-66
2022/07/06 11:36:46;;;;;;;4.07;1.80;;;13.90;99.90;;;;;;4977458;28;20041;-66
2022/07/06 11:39:14;;;;;;;4.55;1.50;;;14.00;99.90;;;;;;4976685;28;20501;-65
2022/07/06 11:41:42;;;;;;;3.03;1.48;;;14.00;99.90;;;;;;4976278;28;20034;-63
2022/07/06 11:44:10;;;;;;;6.05;2.42;;;14.00;99.90;;;;;;4976143;28;20125;-65
2022/07/06 11:46:37;;;;;;;6.75;1.98;;;14.00;99.90;;;;;;4977025;28;20538;-65
2022/07/06 11:49:05;;;;;;;3.78;1.40;;;14.00;99.90;;;;;;4977769;28;20113;-65
2022/07/06 11:51:37;;;;;;;5.53;1.80;;;14.00;99.90;;;;;;4962313;28;20033;-65
2022/07/06 11:54:13;;;;;;;4.75;2.03;;;14.10;99.90;;;;;;5055398;28;20406;-66
2022/07/06 11:57:00;;;;;;;6.30;2.03;;;14.00;99.90;;;;;;5074711;28;20745;-65
2022/07/06 11:59:35;;;;;;;4.53;1.42;;;14.10;99.90;;;;;;5073057;28;20020;-65
2022/07/06 12:02:04;;;;;;;3.20;1.00;;;14.10;99.90;;;;;;5073115;28;20046;-64
2022/07/06 12:04:34;;;;;;;2.95;1.10;;;14.10;99.90;;;;;;5073925;28;20024;-63
2022/07/06 12:07:03;;;;;;;3.22;1.27;;;14.10;99.90;;;;;;5070514;28;20024;-63
2022/07/06 12:09:35;;;;;;;3.35;1.67;;;14.10;99.90;;;;;;5071508;28;20103;-64
2022/07/06 12:12:04;;;;;;;7.18;1.63;;;14.10;99.90;;;;;;5075413;28;20020;-65
2022/07/06 12:14:33;;;;;;;5.90;1.75;;;14.00;99.90;;;;;;5070266;28;20024;-65
2022/07/06 12:17:04;;;;;;;4.72;1.40;;;13.90;99.90;;;;;;5070426;28;20079;-64
2022/07/06 12:19:32;;;;;;;3.38;1.15;;;13.80;99.90;;;;;;5071165;28;20016;-65
2022/07/06 12:22:01;;;;;;;4.85;1.65;;;13.70;99.90;;;;;;5071988;28;20059;-66
2022/07/06 12:24:33;;;;;;;5.70;1.45;;;13.70;99.90;;;;;;5068679;28;20168;-67
2022/07/06 12:27:20;;;;;;;3.63;1.30;;;13.60;99.90;;;;;;5071281;28;20513;-66
2022/07/06 12:29:48;;;;;;;4.18;1.30;;;13.60;99.90;;;;;;5062368;28;20311;-66
2022/07/06 12:32:22;;;;;;;5.88;1.42;;;13.60;99.90;;;;;;5065722;28;20034;-65
2022/07/06 12:35:06;;;;;;;3.38;1.20;;;13.60;99.90;;;;;;5038336;28;20474;-63
2022/07/06 12:37:33;;;;;;;3.25;1.02;;;13.60;99.90;;;;;;5047623;28;20072;-66
2022/07/06 12:40:01;;;;;;;4.45;1.45;;;13.60;99.90;;;;;;5045306;28;20029;-68
2022/07/06 12:42:28;;;;;;;4.60;1.45;;;13.70;99.90;;;;;;5049756;28;20120;-65
2022/07/06 12:44:55;;;;;;;4.97;1.50;;;13.70;99.90;;;;;;5050653;28;20048;-68
2022/07/06 12:47:24;;;;;;;4.57;1.52;;;13.70;99.90;;;;;;5044951;28;20025;-67
2022/07/06 12:50:09;;;;;;;7.63;1.30;;;13.70;99.90;;;;;;5045517;28;20066;-65
2022/07/06 12:52:36;;;;;;;6.53;1.17;;;13.70;99.90;;;;;;5048866;28;20032;-68
2022/07/06 12:55:04;;;;;;;5.10;1.33;;;13.70;99.90;;;;;;5052053;28;20445;-66
2022/07/06 12:57:51;;;;;;;2.85;1.10;;;13.70;99.90;;;;;;5051168;28;20029;-66
2022/07/06 13:00:19;;;;;;;5.25;2.17;;;13.80;99.90;;;;;;5047442;28;20041;-66